createdAt,value
2022-08-30T00:02:20.943Z,74.18
2022-08-30T00:04:48.278Z,75.47
2022-08-30T00:07:15.340Z,74.61
2022-08-30T00:09:42.337Z,74.79
2022-08-30T00:12:09.585Z,74.74
2022-08-30T00:14:36.440Z,75.20
2022-08-30T00:17:03.506Z,74.99
2022-08-30T00:19:30.204Z,74.57
2022-08-30T00:21:57.013Z,74.57
2022-08-30T00:24:23.719Z,74.78
2022-08-30T00:26:50.566Z,73.88
2022-08-30T00:29:17.329Z,74.19
2022-08-30T00:31:44.271Z,74.45
2022-08-30T00:34:11.066Z,73.93
2022-08-30T00:36:37.858Z,74.27
2022-08-30T00:39:05.531Z,74.23
2022-08-30T00:41:32.355Z,73.70
2022-08-30T00:44:00.848Z,74.07
2022-08-30T00:46:28.290Z,73.83
2022-08-30T00:48:56.415Z,73.87
2022-08-30T00:51:24.175Z,74.14
2022-08-30T00:53:57.007Z,74.35
2022-08-30T00:56:25.898Z,75.26
2022-08-30T00:58:57.350Z,75.86
2022-08-30T01:01:25.492Z,76.18
2022-08-30T01:03:53.548Z,77.20
2022-08-30T01:06:20.957Z,77.01
2022-08-30T01:08:48.478Z,76.82
2022-08-30T01:11:20.295Z,76.97
2022-08-30T01:13:50.497Z,76.82
2022-08-30T01:16:18.442Z,77.61
2022-08-30T01:18:45.693Z,77.34
2022-08-30T01:21:46.405Z,77.58
2022-08-30T01:24:14.371Z,77.38
2022-08-30T01:26:41.279Z,77.05
2022-08-30T01:29:13.015Z,77.06
2022-08-30T01:31:39.973Z,76.89
2022-08-30T01:34:08.140Z,76.41
2022-08-30T01:36:44.736Z,76.44
2022-08-30T01:39:15.791Z,76.52
2022-08-30T01:41:43.589Z,76.92
2022-08-30T01:44:12.198Z,77.06
2022-08-30T01:46:45.628Z,76.90
2022-08-30T01:49:16.785Z,77.40
2022-08-30T01:51:43.735Z,77.42
2022-08-30T01:54:10.829Z,76.17
2022-08-30T01:56:37.945Z,75.98
2022-08-30T01:59:06.049Z,76.33
2022-08-30T02:01:36.984Z,75.90
2022-08-30T02:04:05.205Z,75.61
2022-08-30T02:06:32.365Z,75.82
2022-08-30T02:08:59.517Z,75.59
2022-08-30T02:11:26.816Z,76.67
2022-08-30T02:13:53.789Z,76.68
2022-08-30T02:16:23.187Z,76.91
2022-08-30T02:18:51.605Z,75.80
2022-08-30T02:21:18.787Z,75.99
2022-08-30T02:23:45.808Z,76.88
2022-08-30T02:26:13.845Z,75.90
2022-08-30T02:28:42.905Z,74.93
2022-08-30T02:31:20.443Z,74.45
2022-08-30T02:33:50.323Z,74.12
2022-08-30T02:36:18.294Z,74.93
2022-08-30T02:38:45.269Z,74.19
2022-08-30T02:41:12.165Z,74.86
2022-08-30T02:43:38.958Z,74.55
2022-08-30T02:46:06.110Z,74.76
2022-08-30T02:48:32.887Z,74.03
2022-08-30T02:51:05.973Z,73.91
2022-08-30T02:53:36.969Z,72.87
2022-08-30T02:56:04.356Z,73.16
2022-08-30T02:58:31.563Z,73.09
2022-08-30T03:00:58.300Z,73.43
2022-08-30T03:03:25.755Z,73.38
2022-08-30T03:05:52.555Z,74.06
2022-08-30T03:08:19.361Z,73.09
2022-08-30T03:10:46.237Z,72.86
2022-08-30T03:13:13.058Z,72.84
2022-08-30T03:15:40.585Z,73.02
2022-08-30T03:18:07.919Z,73.42
2022-08-30T03:20:37.441Z,72.73
2022-08-30T03:23:04.837Z,72.54
2022-08-30T03:25:31.634Z,72.64
2022-08-30T03:27:58.421Z,72.75
2022-08-30T03:30:25.454Z,72.95
2022-08-30T03:32:52.684Z,73.62
2022-08-30T03:35:20.090Z,73.25
2022-08-30T03:37:47.359Z,73.45
2022-08-30T03:40:17.263Z,73.53
2022-08-30T03:42:46.794Z,73.85
2022-08-30T03:45:16.576Z,73.52
2022-08-30T03:47:44.184Z,74.23
2022-08-30T03:50:12.461Z,74.38
2022-08-30T03:52:39.165Z,74.50
2022-08-30T03:55:06.909Z,74.94
2022-08-30T03:57:33.871Z,75.19
2022-08-30T04:00:05.187Z,74.50
2022-08-30T04:02:38.539Z,75.14
2022-08-30T04:05:05.907Z,74.97
2022-08-30T04:07:32.682Z,75.31
2022-08-30T04:09:59.623Z,75.93
2022-08-30T04:12:26.984Z,75.73
2022-08-30T04:14:53.726Z,75.69
2022-08-30T04:17:20.473Z,77.34
2022-08-30T04:19:47.248Z,76.76
2022-08-30T04:22:13.994Z,76.51
2022-08-30T04:24:41.666Z,76.49
2022-08-30T04:27:09.040Z,77.13
2022-08-30T04:29:35.834Z,76.90
2022-08-30T04:32:02.925Z,76.61
2022-08-30T04:34:29.699Z,77.10
2022-08-30T04:36:56.421Z,77.49
2022-08-30T04:39:23.630Z,77.42
2022-08-30T04:41:50.341Z,77.21
2022-08-30T04:44:19.383Z,76.97
2022-08-30T04:46:46.916Z,76.70
2022-08-30T04:49:13.697Z,76.58
2022-08-30T04:51:40.824Z,76.66
2022-08-30T04:54:07.506Z,76.35
2022-08-30T04:56:34.854Z,75.97
2022-08-30T04:59:03.730Z,75.62
2022-08-30T05:01:37.197Z,76.00
2022-08-30T05:04:13.394Z,75.88
2022-08-30T05:06:40.217Z,75.77
2022-08-30T05:09:07.056Z,74.95
2022-08-30T05:11:33.773Z,74.62
2022-08-30T05:14:00.686Z,74.31
2022-08-30T05:16:27.750Z,73.84
2022-08-30T05:18:54.765Z,72.27
2022-08-30T05:21:26.647Z,72.42
2022-08-30T05:23:56.026Z,71.61
2022-08-30T05:26:25.868Z,71.99
2022-08-30T05:28:52.709Z,71.26
2022-08-30T05:31:26.152Z,71.38
2022-08-30T05:33:54.562Z,70.04
2022-08-30T05:36:26.298Z,70.19
2022-08-30T05:38:54.420Z,70.61
2022-08-30T05:41:22.371Z,69.50
2022-08-30T05:43:49.333Z,69.76
2022-08-30T05:46:19.647Z,69.27
2022-08-30T05:48:47.470Z,69.40
2022-08-30T05:51:18.281Z,68.75
2022-08-30T05:53:46.394Z,68.91
2022-08-30T05:56:16.094Z,68.46
2022-08-30T05:58:43.620Z,67.97
2022-08-30T06:01:25.771Z,67.95
2022-08-30T06:03:55.156Z,67.60
2022-08-30T06:06:22.287Z,66.80
2022-08-30T06:08:49.570Z,65.87
2022-08-30T06:11:22.414Z,66.08
2022-08-30T06:13:50.677Z,66.66
2022-08-30T06:16:20.010Z,65.23
2022-08-30T06:18:47.842Z,66.04
2022-08-30T06:21:25.400Z,65.80
2022-08-30T06:23:52.969Z,65.32
2022-08-30T06:26:19.754Z,65.08
2022-08-30T06:28:46.682Z,64.02
2022-08-30T06:31:16.850Z,63.31
2022-08-30T06:33:44.765Z,63.42
2022-08-30T06:36:16.116Z,63.02
2022-08-30T06:38:42.837Z,62.94
2022-08-30T06:41:12.346Z,62.44
2022-08-30T06:43:38.941Z,62.73
2022-08-30T06:46:08.846Z,62.73
2022-08-30T06:48:35.605Z,63.13
2022-08-30T06:51:02.471Z,64.65
2022-08-30T06:53:31.010Z,64.47
2022-08-30T06:56:16.472Z,64.90
2022-08-30T06:58:44.743Z,65.88
2022-08-30T07:01:14.110Z,66.08
2022-08-30T07:03:40.909Z,66.36
2022-08-30T07:06:08.778Z,68.11
2022-08-30T07:08:36.457Z,68.16
2022-08-30T07:11:05.411Z,66.84
2022-08-30T07:13:32.682Z,67.13
2022-08-30T07:15:59.614Z,66.38
2022-08-30T07:18:45.317Z,66.61
2022-08-30T07:21:15.335Z,65.10
2022-08-30T07:23:48.321Z,65.09
2022-08-30T07:26:21.927Z,63.78
2022-08-30T07:28:49.001Z,64.03
2022-08-30T07:31:22.806Z,63.30
2022-08-30T07:33:50.952Z,62.73
2022-08-30T07:36:18.235Z,63.38
2022-08-30T07:38:46.662Z,63.09
2022-08-30T07:41:19.683Z,63.29
2022-08-30T07:43:47.057Z,63.34
2022-08-30T07:46:13.887Z,63.99
2022-08-30T07:48:41.217Z,64.15
2022-08-30T07:51:13.123Z,64.87
2022-08-30T07:53:39.976Z,65.23
2022-08-30T07:56:06.943Z,65.28
2022-08-30T07:58:34.132Z,65.38
2022-08-30T08:01:02.038Z,65.77
2022-08-30T08:03:29.958Z,66.59
2022-08-30T08:05:57.055Z,66.34
2022-08-30T08:08:23.884Z,65.18
2022-08-30T08:10:50.579Z,65.03
2022-08-30T08:13:17.618Z,64.67
2022-08-30T08:15:44.441Z,65.31
2022-08-30T08:18:11.333Z,64.87
2022-08-30T08:20:38.161Z,65.42
2022-08-30T08:23:04.962Z,64.44
2022-08-30T08:25:31.970Z,64.13
2022-08-30T08:27:59.283Z,64.93
2022-08-30T08:30:26.053Z,63.61
2022-08-30T08:32:52.975Z,64.25
2022-08-30T08:35:20.172Z,64.37
2022-08-30T08:37:46.887Z,63.18
2022-08-30T08:40:19.158Z,63.08
2022-08-30T08:42:59.306Z,62.82
2022-08-30T08:45:35.115Z,63.53
2022-08-30T08:48:03.205Z,62.42
2022-08-30T08:50:31.364Z,62.54
2022-08-30T08:53:46.224Z,62.86
2022-08-30T08:56:16.500Z,64.30
2022-08-30T08:58:48.817Z,63.34
2022-08-30T09:01:19.526Z,61.84
2022-08-30T09:03:47.450Z,62.04
2022-08-30T09:06:28.581Z,61.33
2022-08-30T09:08:55.762Z,63.28
2022-08-30T09:11:28.759Z,61.69
2022-08-30T09:13:55.896Z,61.54
2022-08-30T09:16:47.505Z,61.13
2022-08-30T09:19:36.918Z,60.51
2022-08-30T09:22:16.031Z,60.88
2022-08-30T09:24:50.199Z,60.42
2022-08-30T09:27:18.999Z,58.84
2022-08-30T09:30:11.267Z,61.39
2022-08-30T09:33:02.251Z,58.55
2022-08-30T09:35:37.085Z,58.24
2022-08-30T09:38:07.253Z,56.59
2022-08-30T09:40:37.466Z,56.81
2022-08-30T09:43:16.395Z,57.01
2022-08-30T09:45:47.445Z,56.76
2022-08-30T09:48:41.521Z,57.50
2022-08-30T09:51:11.657Z,56.53
2022-08-30T09:54:14.436Z,57.18
2022-08-30T09:56:59.272Z,55.35
2022-08-30T09:59:31.799Z,55.37
2022-08-30T10:02:30.264Z,55.63
2022-08-30T10:05:12.151Z,54.82
2022-08-30T10:08:13.058Z,56.21
2022-08-30T10:10:51.362Z,55.55
2022-08-30T10:14:00.852Z,54.80
2022-08-30T10:17:05.090Z,55.29
2022-08-30T10:20:02.525Z,56.75
2022-08-30T10:22:37.838Z,56.80
2022-08-30T10:25:16.447Z,55.39
2022-08-30T10:27:50.076Z,56.81
2022-08-30T10:30:18.812Z,57.12
2022-08-30T10:33:06.770Z,56.70
2022-08-30T10:35:39.201Z,54.79
2022-08-30T10:38:11.859Z,54.77
2022-08-30T10:41:03.078Z,55.06
2022-08-30T10:44:00.437Z,54.90
2022-08-30T10:46:39.082Z,57.13
2022-08-30T10:49:14.569Z,55.38
2022-08-30T10:52:34.275Z,54.77
2022-08-30T10:55:06.129Z,54.40
2022-08-30T10:57:32.882Z,55.86
2022-08-30T11:00:11.083Z,54.24
2022-08-30T11:03:23.905Z,52.40
2022-08-30T11:06:12.328Z,53.81
2022-08-30T11:08:51.675Z,54.19
2022-08-30T11:11:56.826Z,52.47
2022-08-30T11:14:25.361Z,52.44
2022-08-30T11:16:54.972Z,51.90
2022-08-30T11:19:24.697Z,50.24
2022-08-30T11:22:08.125Z,50.79
2022-08-30T11:25:01.766Z,51.13
2022-08-30T11:27:52.512Z,50.88
2022-08-30T11:30:26.739Z,52.38
2022-08-30T11:32:59.624Z,51.72
2022-08-30T11:35:48.376Z,51.18
2022-08-30T11:38:28.350Z,49.91
2022-08-30T11:40:55.121Z,49.82
2022-08-30T11:43:33.923Z,51.26
2022-08-30T11:46:27.146Z,50.32
2022-08-30T11:49:15.605Z,49.22
2022-08-30T11:52:28.490Z,50.21
2022-08-30T11:55:23.272Z,48.70
2022-08-30T11:58:26.080Z,48.47
2022-08-30T12:01:51.876Z,50.50
2022-08-30T12:04:17.370Z,49.47
2022-08-30T12:06:46.515Z,48.75
2022-08-30T12:09:33.498Z,48.58
2022-08-30T12:12:12.428Z,50.08
2022-08-30T12:14:42.311Z,50.06
2022-08-30T12:17:50.943Z,48.98
2022-08-30T12:20:23.891Z,49.27
2022-08-30T12:22:52.407Z,48.78
2022-08-30T12:25:25.664Z,49.63
2022-08-30T12:28:08.728Z,49.83
2022-08-30T12:30:39.706Z,48.29
2022-08-30T12:33:12.051Z,48.74
2022-08-30T12:35:39.513Z,47.77
2022-08-30T12:38:14.464Z,47.20
2022-08-30T12:40:49.974Z,48.13
2022-08-30T12:43:27.829Z,47.56
2022-08-30T12:46:12.255Z,48.27
2022-08-30T12:48:41.212Z,47.47
2022-08-30T12:51:10.901Z,46.59
2022-08-30T12:53:46.246Z,46.15
2022-08-30T12:56:30.402Z,45.78
2022-08-30T12:59:05.111Z,46.01
2022-08-30T13:01:37.289Z,46.76
2022-08-30T13:04:21.621Z,45.95
2022-08-30T13:06:59.410Z,47.35
2022-08-30T13:09:27.075Z,45.60
2022-08-30T13:11:54.874Z,46.11
2022-08-30T13:14:31.360Z,47.40
2022-08-30T13:17:12.181Z,46.18
2022-08-30T13:19:41.925Z,45.44
2022-08-30T13:23:10.467Z,45.19
2022-08-30T13:25:39.627Z,45.38
2022-08-30T13:28:08.249Z,45.16
2022-08-30T13:30:35.327Z,46.85
2022-08-30T13:33:02.383Z,44.78
2022-08-30T13:35:31.204Z,45.32
2022-08-30T13:37:59.838Z,45.19
2022-08-30T13:40:26.552Z,45.24
2022-08-30T13:42:53.795Z,45.43
2022-08-30T13:48:10.409Z,45.04
2022-08-30T13:50:37.186Z,45.04
2022-08-30T13:53:04.023Z,45.81
2022-08-30T13:55:30.751Z,44.92
2022-08-30T13:57:58.111Z,44.36
2022-08-30T14:00:26.086Z,43.51
2022-08-30T14:02:57.549Z,45.05
2022-08-30T14:11:12.905Z,44.60
2022-08-30T14:16:31.555Z,43.67
2022-08-30T14:19:00.248Z,44.19
2022-08-30T14:21:27.489Z,45.26
2022-08-30T14:23:56.656Z,45.25
2022-08-30T14:26:33.047Z,44.61
2022-08-30T14:29:09.216Z,45.23
2022-08-30T14:31:37.446Z,46.24
2022-08-30T14:34:05.129Z,45.27
2022-08-30T14:36:34.071Z,44.66
2022-08-30T14:39:01.841Z,45.26
2022-08-30T14:41:28.878Z,45.23
2022-08-30T14:43:55.934Z,45.17
2022-08-30T14:46:25.722Z,44.30
2022-08-30T14:48:54.172Z,43.80
2022-08-30T14:51:23.233Z,45.44
2022-08-30T14:53:53.307Z,46.73
2022-08-30T14:56:22.011Z,47.99
2022-08-30T14:58:51.139Z,46.45
2022-08-30T15:01:18.886Z,44.77
2022-08-30T15:03:45.852Z,45.79
2022-08-30T15:06:13.156Z,46.40
2022-08-30T15:08:40.190Z,45.42
2022-08-30T15:11:12.035Z,44.52
2022-08-30T15:13:40.381Z,45.19
2022-08-30T15:16:20.268Z,43.55
2022-08-30T15:18:47.473Z,44.01
2022-08-30T15:21:14.365Z,43.66
2022-08-30T15:23:41.893Z,42.91
2022-08-30T15:26:09.439Z,44.46
2022-08-30T15:28:36.833Z,45.53
2022-08-30T15:31:08.653Z,44.79
2022-08-30T15:33:37.961Z,46.25
2022-08-30T15:36:05.573Z,46.41
2022-08-30T15:38:35.853Z,46.62
2022-08-30T15:41:05.637Z,46.99
2022-08-30T15:43:32.430Z,47.75
2022-08-30T15:46:37.621Z,46.82
2022-08-30T15:49:09.217Z,47.00
2022-08-30T15:51:41.408Z,45.52
2022-08-30T15:54:11.698Z,47.24
2022-08-30T15:56:39.864Z,45.83
2022-08-30T15:59:09.449Z,44.90
2022-08-30T16:01:36.807Z,45.36
2022-08-30T16:04:04.464Z,46.77
2022-08-30T16:06:35.214Z,47.29
2022-08-30T16:09:03.556Z,46.14
2022-08-30T16:11:31.680Z,45.78
2022-08-30T16:13:58.999Z,46.37
2022-08-30T16:16:26.698Z,45.57
2022-08-30T16:18:55.128Z,45.32
2022-08-30T16:21:30.717Z,46.42
2022-08-30T16:24:00.058Z,45.30
2022-08-30T16:26:28.295Z,45.42
2022-08-30T16:28:56.059Z,45.38
2022-08-30T16:31:24.347Z,46.78
2022-08-30T16:33:53.139Z,46.73
2022-08-30T16:36:22.544Z,45.65
2022-08-30T16:38:53.518Z,46.46
2022-08-30T16:41:23.451Z,45.61
2022-08-30T16:43:53.626Z,46.12
2022-08-30T16:46:22.942Z,47.24
2022-08-30T16:48:50.284Z,48.14
2022-08-30T16:51:20.932Z,47.40
2022-08-30T16:53:48.228Z,47.21
2022-08-30T16:56:20.581Z,46.34
2022-08-30T16:58:48.617Z,46.99
2022-08-30T17:01:19.805Z,47.37
2022-08-30T17:03:50.081Z,47.52
2022-08-30T17:06:17.890Z,48.29
2022-08-30T17:08:47.411Z,49.13
2022-08-30T17:11:14.696Z,47.13
2022-08-30T17:13:41.554Z,47.74
2022-08-30T17:16:08.687Z,48.80
2022-08-30T17:18:35.960Z,46.75
2022-08-30T17:21:03.913Z,47.55
2022-08-30T17:23:34.529Z,47.41
2022-08-30T17:26:02.131Z,48.37
2022-08-30T17:28:29.827Z,49.59
2022-08-30T17:30:56.743Z,50.24
2022-08-30T17:33:23.581Z,49.92
2022-08-30T17:35:53.400Z,50.84
2022-08-30T17:38:20.679Z,51.38
2022-08-30T17:40:47.924Z,52.55
2022-08-30T17:43:14.841Z,53.77
2022-08-30T17:45:41.563Z,54.74
2022-08-30T17:48:08.412Z,55.29
2022-08-30T17:50:35.405Z,54.77
2022-08-30T17:53:02.891Z,55.68
2022-08-30T17:55:30.825Z,56.52
2022-08-30T17:57:57.764Z,56.37
2022-08-30T18:00:27.353Z,57.16
2022-08-30T18:02:54.143Z,57.27
2022-08-30T18:08:07.673Z,57.36
2022-08-30T18:10:36.451Z,56.01
2022-08-30T18:13:03.758Z,57.56
2022-08-30T18:15:31.684Z,57.02
2022-08-30T18:17:58.539Z,57.87
2022-08-30T18:20:26.476Z,57.67
2022-08-30T18:22:53.587Z,56.77
2022-08-30T18:25:20.413Z,57.92
2022-08-30T18:27:57.147Z,58.55
2022-08-30T18:30:31.199Z,58.91
2022-08-30T18:33:00.930Z,59.34
2022-08-30T18:35:27.851Z,60.24
2022-08-30T18:37:54.589Z,60.72
2022-08-30T18:40:21.501Z,61.93
2022-08-30T18:42:48.314Z,61.29
2022-08-30T18:48:02.345Z,61.29
2022-08-30T18:50:30.272Z,61.42
2022-08-30T18:52:57.559Z,62.28
2022-08-30T18:57:54.010Z,63.01
2022-08-30T19:00:21.160Z,64.12
2022-08-30T19:02:48.016Z,64.42
2022-08-30T19:05:17.122Z,64.50
2022-08-30T19:07:44.110Z,64.71
2022-08-30T19:10:12.379Z,65.08
2022-08-30T19:12:39.957Z,64.25
2022-08-30T19:15:10.854Z,65.68
2022-08-30T19:17:40.929Z,66.69
2022-08-30T19:20:10.022Z,65.99
2022-08-30T19:23:05.803Z,66.58
2022-08-30T19:25:24.751Z,66.41
2022-08-30T19:27:52.147Z,67.50
2022-08-30T19:30:27.420Z,67.61
2022-08-30T19:32:56.413Z,67.77
2022-08-30T19:35:23.127Z,68.10
2022-08-30T19:37:51.124Z,67.92
2022-08-30T19:40:19.283Z,67.95
2022-08-30T19:42:46.479Z,67.30
2022-08-30T19:45:17.685Z,67.39
2022-08-30T19:47:45.831Z,68.56
2022-08-30T19:50:15.895Z,67.72
2022-08-30T19:52:42.592Z,67.35
2022-08-30T19:55:11.879Z,67.27
2022-08-30T19:57:38.732Z,68.35
2022-08-30T20:00:09.236Z,68.77
2022-08-30T20:02:41.859Z,69.85
2022-08-30T20:05:09.727Z,69.56
2022-08-30T20:07:37.880Z,69.71
2022-08-30T20:10:07.819Z,70.28
2022-08-30T20:12:35.480Z,70.58
2022-08-30T20:15:09.297Z,70.81
2022-08-30T20:18:02.102Z,70.51
2022-08-30T20:20:24.052Z,69.63
2022-08-30T20:22:54.289Z,67.90
2022-08-30T20:24:26.809Z,55.89
2022-08-30T20:24:29.463Z,60.35
2022-08-30T20:25:22.265Z,68.21
2022-08-30T20:27:49.330Z,68.03
2022-08-30T20:30:18.623Z,67.51
2022-08-30T20:32:46.864Z,67.83
2022-08-30T20:35:15.894Z,67.87
2022-08-30T20:37:44.500Z,68.47
2022-08-30T20:40:15.524Z,68.47
2022-08-30T20:42:46.503Z,68.94
2022-08-30T20:45:16.542Z,68.91
2022-08-30T20:47:43.679Z,69.41
2022-08-30T20:50:13.900Z,69.68
2022-08-30T20:52:41.647Z,69.99
2022-08-30T20:55:10.076Z,70.58
2022-08-30T20:57:37.437Z,71.04
2022-08-30T21:00:10.912Z,71.77
2022-08-30T21:02:46.405Z,72.03
2022-08-30T21:05:16.318Z,73.21
2022-08-30T21:07:45.624Z,72.46
2022-08-30T21:10:13.996Z,72.52
2022-08-30T21:12:42.808Z,71.55
2022-08-30T21:15:33.801Z,72.46
2022-08-30T21:17:56.851Z,71.46
2022-08-30T21:20:23.522Z,72.11
2022-08-30T21:22:50.300Z,71.43
2022-08-30T21:25:17.292Z,72.72
2022-08-30T21:27:44.189Z,72.05
2022-08-30T21:30:17.976Z,71.43
2022-08-30T21:32:44.856Z,71.48
2022-08-30T21:35:30.051Z,71.56
2022-08-30T21:37:56.836Z,71.79
2022-08-30T21:40:23.565Z,73.11
2022-08-30T21:42:50.297Z,72.33
2022-08-30T21:45:17.112Z,72.12
2022-08-30T21:47:44.014Z,71.73
2022-08-30T21:50:11.970Z,71.64
2022-08-30T21:52:38.864Z,71.93
2022-08-30T21:55:05.891Z,71.52
2022-08-30T21:57:32.956Z,71.61
2022-08-30T21:59:59.853Z,71.76
2022-08-30T22:02:27.225Z,71.73
2022-08-30T22:04:54.536Z,72.68
2022-08-30T22:07:21.214Z,72.35
2022-08-30T22:09:48.049Z,72.13
2022-08-30T22:12:14.832Z,72.21
2022-08-30T22:14:41.620Z,71.40
2022-08-30T22:17:08.418Z,73.17
2022-08-30T22:19:35.147Z,72.88
2022-08-30T22:22:02.007Z,73.17
2022-08-30T22:24:32.394Z,74.19
2022-08-30T22:27:01.515Z,74.29
2022-08-30T22:29:30.117Z,73.27
2022-08-30T22:31:56.928Z,72.07
2022-08-30T22:34:23.790Z,72.22
2022-08-30T22:36:50.893Z,70.62
2022-08-30T22:39:18.243Z,70.78
2022-08-30T22:41:45.160Z,70.23
2022-08-30T22:44:12.158Z,69.64
2022-08-30T22:46:39.520Z,70.56
2022-08-30T22:49:09.144Z,70.88
2022-08-30T22:51:37.028Z,71.36
2022-08-30T22:54:06.943Z,71.41
2022-08-30T22:56:35.671Z,71.53
2022-08-30T22:59:02.922Z,72.31
2022-08-30T23:01:34.043Z,72.42
2022-08-30T23:04:01.578Z,72.61
2022-08-30T23:06:29.493Z,73.01
2022-08-30T23:08:57.207Z,74.20
2022-08-30T23:11:24.118Z,73.97
2022-08-30T23:13:50.938Z,74.27
2022-08-30T23:16:18.701Z,74.45
2022-08-30T23:18:46.712Z,74.51
2022-08-30T23:21:26.218Z,75.42
2022-08-30T23:24:14.018Z,74.29
2022-08-30T23:27:01.315Z,74.25
2022-08-30T23:29:49.119Z,74.47
2022-08-30T23:32:34.448Z,74.15
2022-08-30T23:35:19.857Z,74.49
2022-08-30T23:38:10.262Z,74.66
2022-08-30T23:40:55.535Z,74.39
2022-08-30T23:43:41.185Z,74.47
2022-08-30T23:46:26.693Z,73.89
2022-08-30T23:49:12.168Z,74.44
2022-08-30T23:51:57.524Z,74.50
2022-08-30T23:54:43.920Z,73.98
2022-08-30T23:57:29.169Z,73.87
